Strongstown, PA

8:33 AM EDT on August 27, 2014 (GMT -0400)
Colver | Change Station
CLOSE
Current Station
Personal Weather Station
Location: Colver Streets, PA
Elevation: 2149 ft
Nearby Weather Stations

Elev 2149 ft 40.54 °N, 78.79 °W | Updated 4 minutes ago

Partly Cloudy
Partly Cloudy
67.2 °F
Feels Like 67.2 °F
N
0.0
Wind Variable Wind from WSW
Gusts 1.0 mph

Today
High -- | Low -- °F
--% Chance of Precip.
Yesterday
High -- | Low -- °F
Precip. -- in
6:37 AM 7:55 PM
Waxing Crescent, 3% visible
Pressure 30.16 in
Visibility 10.0 miles
Clouds Few 3700 ft
Scattered Clouds 4800 ft
Dew Point 63 °F
Humidity 85%
Rainfall -9999.00 in
Snow Depth Not available.
UV 1 out of 12
Pollen 10.00 out of 12
Ozone Good
PM2.5 Moderate
Flu Activity Not available.
METAR KIDI 271215Z AUTO 25003KT 10SM FEW037 SCT048 19/17 A3016 RMK A01

More Conditions Fewer Conditions

Pressure 30.16 in
Visibility 10.0 miles
Clouds Few 3700 ft
Scattered Clouds 4800 ft
Dew Point 63 °F
Humidity 85%
Rainfall -9999.00 in
Snow Depth Not available.
UV 1 out of 12
Pollen 10.00 out of 12
Ozone Good
PM2.5 Moderate
Flu Activity Not available.
METAR KIDI 271215Z AUTO 25003KT 10SM FEW037 SCT048 19/17 A3016 RMK A01

More Conditions Fewer Conditions

10-Day Weather Forecast

Almanac

Astronomy

Aug. 27, 2014 Rise Set
Actual Time 6:37 AM EDT 7:55 PM EDT
Civil Twilight 6:09 AM EDT 8:23 PM EDT
Nautical Twilight 5:35 AM EDT 8:57 PM EDT
Astronomical Twilight 4:59 AM EDT 9:33 PM EDT
Moon 8:33 AM EDT 8:46 PM EDT
Length of Visible Light 14h 14m
Length of Day
13h 17m
Tomorrow will be 2m 32s shorter.
Waxing Crescent, 3% of the Moon is Illuminated
Today
Waxing Crescent
Sep 2
First Quarter
Sep 8
Full
Sep 15
Last Quarter
Sep 24
New

Today's Extremes

State Highs State Lows

Community

WunderPhotos

Upload Photos

1,747,676 photos uploaded!

Nearby

Air Quality

  Air Quality AQ Index Pollutant
Yesterday Moderate
OZONE
Yesterday Moderate
PM2.5
Current Moderate
PM2.5
Current Good
OZONE
Wednesday Moderate
OZONE
Wednesday Moderate
PM2.5
Thursday Good
PM2.5
Thursday Good
OZONE

Snow Depth

Station Depth Elevation
No new snow has been reported.

Earthquake Activity

City Distance Mag. Time & Date
No recent earthquake activity has been reported nearby.
Minimum magnitude displayed is 2.5.

Coastal Water Temperatures

Place Temperature
No Stations Reporting

Nearby Weather Stations